Kenosha Regional Airport Kenosha US
ICAO: KENW
IATA: ENW
Category: Medium
Scheduled Services: No

Elevation: 742 ft
TransAlt. 18000 ft.

Airport Communications:
MILWAUKEE APP/DEP:120.15
ASOS:127.175
ATIS:127.175
CLNC DEL:118.6
CTAF:118.6
GND:121.875
GREEN BAY RDO:109.2
TWR:118.6
UNICOM:122.95

KENW Zoom In..

If Map Doesn't Load, Click Here

Runways:

(A) RW 07L length 5499 ft width 100 ft
ILS 109.35 / hdg 66

(B) RW 07R length 3302 ft width 75 ft
---- / hdg 66

(C) RW 15 length 4440 ft width 100 ft
---- / hdg 146

(D) RW 25L length 3302 ft width 75 ft
---- / hdg 246

(E) RW 25R length 5499 ft width 100 ft
---- / hdg 246

(F) RW 33 length 4440 ft width 100 ft
---- / hdg 326

Location; KENW
Day. 26 / Time. 09.53 Zulu
* Altimeter: 30.02
* Temperature: 09° c. 48.2°f.
* Wind from: 280° Speed 04 kn.
Dewpoint: 07° c.
Visibility: 10 Statute Miles.
Clouds: Clear (automated report).

KENW 260953Z AUTO 28004KT 10SM CLR 09/07 A3002 RMK AO2 SLP163 T00890072


Wind From 280°
Speed 04 kn.

 
 
jpsmedia.com for Web Design worldairports.se 2018   terms of use